Terminal Aerodrome Forecast
Issued by NWS Grand Forks, ND

Home | Current Version | Previous Version | Text Only | Print | Product List | Glossary Off
Versions: 1 2 3 4 5 6 7 8 9 10 11 12 13 14 15

446
FTUS43 KFGF 271724
TAFFAR
TAF
KFAR 271724Z 2718/2818 20012KT P6SM VCTS BKN025CB OVC040
     FM272200 18009KT P6SM VCTS SCT040CB BKN130
     FM280200 15006KT P6SM FEW250
     FM281500 14012KT P6SM SCT200=

USA.gov is the U.S. government's official web portal to all federal, state and local government web resources and services.